Time;durP1;ratioP1;P1;durP2;ratioP2;P2;SDS_P1;SDS_P2;PMS_P1;PMS_P2;Temp;Humidity;BMP_temperature;BMP_pressure;BME280_temperature;BME280_humidity;BME280_pressure;Samples;Min_cycle;Max_cycle;Signal;HPM_P1;HPM_P2
2021/03/10 00:00:04;;;;;;;1.92;1.35;;;18.90;20.60;;;;;;5114170;28;20220;-57
2021/03/10 00:02:32;;;;;;;3.30;1.80;;;18.90;20.60;;;;;;5113957;28;20260;-56
2021/03/10 00:04:58;;;;;;;2.85;2.33;;;18.90;20.70;;;;;;5114193;28;20157;-57
2021/03/10 00:07:24;;;;;;;1.57;1.47;;;18.90;20.70;;;;;;5113980;28;20162;-57
2021/03/10 00:09:51;;;;;;;1.73;1.63;;;18.90;20.70;;;;;;5113387;28;20526;-57
2021/03/10 00:12:19;;;;;;;1.85;1.70;;;18.90;20.70;;;;;;5113835;28;20214;-57
2021/03/10 00:14:45;;;;;;;1.83;1.70;;;18.90;20.60;;;;;;5114036;28;20184;-57
2021/03/10 00:17:13;;;;;;;1.77;1.50;;;18.90;20.70;;;;;;5113757;28;20755;-57
2021/03/10 00:19:40;;;;;;;1.88;1.70;;;18.90;20.60;;;;;;5113825;28;20188;-57
2021/03/10 00:22:05;;;;;;;2.42;1.73;;;18.90;20.60;;;;;;5113905;28;20150;-56
2021/03/10 00:24:31;;;;;;;1.57;1.47;;;18.90;20.60;;;;;;5113375;28;20206;-57
2021/03/10 00:26:57;;;;;;;2.03;1.83;;;18.90;20.60;;;;;;5113918;28;20193;-57
2021/03/10 00:29:22;;;;;;;1.87;1.73;;;18.90;20.70;;;;;;5113771;28;20546;-57
2021/03/10 00:31:50;;;;;;;2.43;2.23;;;18.90;20.70;;;;;;5113774;28;20179;-57
2021/03/10 00:34:16;;;;;;;1.40;1.20;;;18.90;20.70;;;;;;5113797;28;20179;-57
2021/03/10 00:36:42;;;;;;;1.63;1.53;;;18.90;20.70;;;;;;5113790;28;20623;-58
2021/03/10 00:39:07;;;;;;;2.00;1.80;;;18.90;20.70;;;;;;5113073;28;20192;-58
2021/03/10 00:41:33;;;;;;;2.80;1.60;;;18.90;20.70;;;;;;5113743;28;20162;-57
2021/03/10 00:43:58;;;;;;;2.27;2.07;;;18.90;20.70;;;;;;5113646;28;20226;-57
2021/03/10 00:46:24;;;;;;;1.80;1.70;;;18.90;20.70;;;;;;5113529;28;20592;-57
2021/03/10 00:48:50;;;;;;;1.97;1.47;;;18.90;20.70;;;;;;5113810;28;20165;-57
2021/03/10 00:51:15;;;;;;;1.70;1.60;;;18.90;20.70;;;;;;5113407;28;20601;-58
2021/03/10 00:53:42;;;;;;;1.90;1.80;;;18.80;21.10;;;;;;5112879;28;20164;-57
2021/03/10 00:56:08;;;;;;;1.77;1.67;;;18.80;20.60;;;;;;5113693;28;20150;-57
2021/03/10 00:58:33;;;;;;;1.77;1.50;;;18.80;20.60;;;;;;5113445;28;20690;-57
2021/03/10 01:01:01;;;;;;;1.50;1.40;;;18.80;20.60;;;;;;5113522;28;20620;-57
2021/03/10 01:03:29;;;;;;;2.42;1.88;;;18.80;20.60;;;;;;5113930;28;20145;-57
2021/03/10 01:05:57;;;;;;;1.77;1.50;;;18.80;20.60;;;;;;5117051;28;20215;-58
2021/03/10 01:08:23;;;;;;;2.00;1.88;;;18.80;20.60;;;;;;5116646;28;20153;-58
2021/03/10 01:10:49;;;;;;;2.00;1.80;;;18.80;20.60;;;;;;5116923;28;20214;-58
2021/03/10 01:13:15;;;;;;;1.95;1.60;;;18.80;20.60;;;;;;5117213;28;20165;-58
2021/03/10 01:15:43;;;;;;;2.23;1.50;;;18.80;20.60;;;;;;5116910;28;20240;-57
2021/03/10 01:18:11;;;;;;;1.70;1.60;;;18.80;20.60;;;;;;5116609;28;20465;-58
2021/03/10 01:20:37;;;;;;;1.80;1.30;;;18.80;20.60;;;;;;5117028;28;20170;-58
2021/03/10 01:23:03;;;;;;;1.80;1.70;;;18.80;20.60;;;;;;5097878;28;20157;-58
2021/03/10 01:25:30;;;;;;;1.47;1.37;;;18.80;20.60;;;;;;5116809;28;20157;-57
2021/03/10 01:27:58;;;;;;;1.83;1.70;;;18.80;20.60;;;;;;5116551;28;20181;-58
2021/03/10 01:30:24;;;;;;;2.17;1.98;;;18.80;21.20;;;;;;5098361;28;20240;-57
2021/03/10 01:32:50;;;;;;;1.60;1.50;;;18.80;20.60;;;;;;5116698;28;20621;-58
2021/03/10 01:35:23;;;;;;;2.10;2.00;;;18.80;20.60;;;;;;5116335;28;20185;-57
2021/03/10 01:37:49;;;;;;;2.30;1.67;;;18.80;20.60;;;;;;5116377;28;20751;-57
2021/03/10 01:40:16;;;;;;;1.60;1.50;;;18.80;20.60;;;;;;5115887;28;20657;-57
2021/03/10 01:42:43;;;;;;;1.77;1.67;;;18.80;20.70;;;;;;5116483;28;20158;-57
2021/03/10 01:45:10;;;;;;;3.25;1.98;;;18.80;20.60;;;;;;5116368;28;20172;-57
2021/03/10 01:47:39;;;;;;;1.50;1.40;;;18.80;20.60;;;;;;5116616;28;20184;-57
2021/03/10 01:50:06;;;;;;;1.92;1.70;;;18.80;20.60;;;;;;5116168;28;20194;-58
2021/03/10 01:52:32;;;;;;;1.58;1.48;;;18.80;20.60;;;;;;5116117;28;20196;-58
2021/03/10 01:54:57;;;;;;;1.40;1.30;;;18.80;20.70;;;;;;5115791;28;20608;-58
2021/03/10 01:57:23;;;;;;;1.40;1.30;;;18.80;20.60;;;;;;5116097;28;20268;-58
2021/03/10 01:59:49;;;;;;;1.83;1.73;;;18.80;20.70;;;;;;5116098;28;20239;-57
2021/03/10 02:02:15;;;;;;;1.85;1.75;;;18.80;20.60;;;;;;5115857;28;20563;-57
2021/03/10 02:04:41;;;;;;;1.70;1.60;;;18.80;20.60;;;;;;5115881;28;20153;-58
2021/03/10 02:07:10;;;;;;;1.57;1.47;;;18.80;20.60;;;;;;5115856;28;20165;-57
2021/03/10 02:09:50;;;;;;;1.42;1.33;;;18.80;20.60;;;;;;5115538;28;20193;-57
2021/03/10 02:12:32;;;;;;;1.60;1.50;;;18.80;20.60;;;;;;5115623;28;20146;-57
2021/03/10 02:15:06;;;;;;;1.70;1.60;;;18.80;20.70;;;;;;5115216;28;20161;-57
2021/03/10 02:17:36;;;;;;;1.70;1.60;;;18.80;20.60;;;;;;5115522;28;20213;-57
2021/03/10 02:20:05;;;;;;;1.90;1.55;;;18.80;20.70;;;;;;5115512;28;20523;-56
2021/03/10 02:22:47;;;;;;;1.30;1.20;;;18.80;20.60;;;;;;5115723;28;20153;-58
2021/03/10 02:25:28;;;;;;;1.85;1.67;;;18.80;20.60;;;;;;5115221;28;20158;-58
2021/03/10 02:27:59;;;;;;;2.28;2.08;;;18.80;20.60;;;;;;5115475;28;20177;-58
2021/03/10 02:30:28;;;;;;;1.70;1.60;;;18.80;20.70;;;;;;5097286;28;20165;-58
2021/03/10 02:32:59;;;;;;;1.65;1.55;;;18.80;20.70;;;;;;5115397;28;20184;-57
2021/03/10 02:35:26;;;;;;;1.58;1.48;;;18.80;20.70;;;;;;5115101;28;20175;-57
2021/03/10 02:38:06;;;;;;;2.33;2.13;;;18.70;20.60;;;;;;5115052;28;20189;-58
2021/03/10 02:40:32;;;;;;;1.65;1.52;;;18.80;20.70;;;;;;5115260;28;20153;-57
2021/03/10 02:42:58;;;;;;;1.65;1.42;;;18.70;20.60;;;;;;5115039;28;20157;-57
2021/03/10 02:45:27;;;;;;;1.95;1.80;;;18.80;20.70;;;;;;5115056;28;20153;-57
2021/03/10 02:47:55;;;;;;;2.00;1.80;;;18.70;20.60;;;;;;5115134;28;20153;-57
2021/03/10 02:50:22;;;;;;;2.00;1.88;;;18.70;20.60;;;;;;5114831;28;20161;-57
2021/03/10 02:52:48;;;;;;;2.10;2.00;;;18.70;20.60;;;;;;5115027;28;20156;-57
2021/03/10 02:55:15;;;;;;;1.90;1.80;;;18.70;20.60;;;;;;5114421;28;20192;-57
2021/03/10 02:57:41;;;;;;;2.08;1.67;;;18.70;20.60;;;;;;5114862;28;20222;-58
2021/03/10 03:00:11;;;;;;;1.83;1.73;;;18.70;20.60;;;;;;5114798;28;20158;-57
2021/03/10 03:02:37;;;;;;;1.80;1.70;;;18.70;20.60;;;;;;5114735;28;20239;-57
2021/03/10 03:05:05;;;;;;;1.83;1.63;;;18.70;20.60;;;;;;5114499;28;20165;-57
2021/03/10 03:07:31;;;;;;;1.65;1.55;;;18.70;20.60;;;;;;5114698;28;20200;-57
2021/03/10 03:10:00;;;;;;;1.50;1.40;;;18.70;20.60;;;;;;5114275;28;20184;-57
2021/03/10 03:12:26;;;;;;;1.92;1.73;;;18.70;20.60;;;;;;5096563;28;20192;-58
2021/03/10 03:14:55;;;;;;;1.90;1.80;;;18.70;20.70;;;;;;5114854;28;20168;-57
2021/03/10 03:17:20;;;;;;;1.70;1.60;;;18.70;20.70;;;;;;5114304;28;20244;-57
2021/03/10 03:19:46;;;;;;;1.67;1.40;;;18.70;21.20;;;;;;5114037;28;20184;-58
2021/03/10 03:22:14;;;;;;;2.07;1.87;;;18.70;20.60;;;;;;5114640;28;20250;-57
2021/03/10 03:24:44;;;;;;;1.65;1.52;;;18.70;20.70;;;;;;5113919;28;20173;-57
2021/03/10 03:27:12;;;;;;;2.38;1.65;;;18.70;20.70;;;;;;5114249;28;20176;-57
2021/03/10 03:29:38;;;;;;;1.40;1.30;;;18.70;20.70;;;;;;5114373;28;20168;-57
2021/03/10 03:32:04;;;;;;;1.55;1.45;;;18.70;20.70;;;;;;5114548;28;20611;-57
2021/03/10 03:34:32;;;;;;;1.50;1.40;;;18.70;20.70;;;;;;5114269;28;20153;-57
2021/03/10 03:36:58;;;;;;;1.58;1.48;;;18.70;20.70;;;;;;5114561;28;20243;-57
2021/03/10 03:39:24;;;;;;;1.58;1.48;;;18.70;20.70;;;;;;5113851;28;20338;-57
2021/03/10 03:41:51;;;;;;;1.50;1.40;;;18.70;20.70;;;;;;5114242;28;20616;-57
2021/03/10 03:44:18;;;;;;;1.40;1.30;;;18.70;20.70;;;;;;5114036;28;20512;-58
2021/03/10 03:46:44;;;;;;;2.28;2.08;;;18.70;20.70;;;;;;5114092;28;20198;-58
2021/03/10 03:49:10;;;;;;;1.95;1.80;;;17.70;20.00;;;;;;5114019;28;20191;-58
2021/03/10 03:51:38;;;;;;;1.30;1.20;;;18.70;20.70;;;;;;5114056;28;20192;-58
2021/03/10 03:54:05;;;;;;;2.10;1.50;;;18.70;20.70;;;;;;5113394;28;20154;-58
2021/03/10 03:56:32;;;;;;;1.75;1.65;;;18.70;20.70;;;;;;5114119;28;20153;-58
2021/03/10 03:58:58;;;;;;;1.92;1.75;;;18.70;20.70;;;;;;5113907;28;20191;-58
2021/03/10 04:01:24;;;;;;;1.38;1.27;;;18.70;20.70;;;;;;5114007;28;20240;-57
2021/03/10 04:03:50;;;;;;;2.20;2.00;;;18.70;20.70;;;;;;5113822;28;20248;-57
2021/03/10 04:06:17;;;;;;;1.67;1.58;;;18.70;20.70;;;;;;5114169;28;20574;-57
2021/03/10 04:08:44;;;;;;;1.92;1.83;;;18.70;20.70;;;;;;5113604;28;20169;-58
2021/03/10 04:11:13;;;;;;;1.85;1.75;;;18.70;20.70;;;;;;5113900;28;20189;-58
2021/03/10 04:13:39;;;;;;;1.55;1.45;;;18.70;20.70;;;;;;5113912;28;20600;-58
2021/03/10 04:16:05;;;;;;;1.60;1.50;;;18.70;20.70;;;;;;5114115;28;20173;-57
2021/03/10 04:18:31;;;;;;;1.90;1.65;;;18.70;20.70;;;;;;5095041;28;20918;-58
2021/03/10 04:20:57;;;;;;;2.35;1.80;;;18.70;20.70;;;;;;5114044;28;20154;-57
2021/03/10 04:23:23;;;;;;;2.53;1.87;;;18.70;20.70;;;;;;5113387;28;20153;-58
2021/03/10 04:25:48;;;;;;;1.90;1.80;;;18.70;20.70;;;;;;5113677;28;20149;-58
2021/03/10 04:28:14;;;;;;;1.60;1.40;;;18.70;20.70;;;;;;5113631;28;20268;-58
2021/03/10 04:30:40;;;;;;;2.10;1.90;;;18.70;20.70;;;;;;5113972;28;20184;-57
2021/03/10 04:33:08;;;;;;;1.90;1.80;;;18.70;20.70;;;;;;5113684;28;20158;-58
2021/03/10 04:35:34;;;;;;;1.73;1.63;;;18.70;20.70;;;;;;5113692;28;20403;-57
2021/03/10 04:38:00;;;;;;;1.70;1.60;;;18.70;20.70;;;;;;5113093;28;20197;-58
2021/03/10 04:40:25;;;;;;;1.70;1.60;;;18.70;20.70;;;;;;5099156;28;20646;-57
2021/03/10 04:42:53;;;;;;;1.63;1.53;;;18.70;20.70;;;;;;5117711;28;20157;-58
2021/03/10 04:45:22;;;;;;;1.90;1.80;;;18.60;20.60;;;;;;5117327;28;20157;-57
2021/03/10 04:47:47;;;;;;;1.90;1.70;;;18.70;20.70;;;;;;5117471;28;20162;-58
2021/03/10 04:50:17;;;;;;;2.13;1.73;;;18.70;20.70;;;;;;5117214;28;20634;-58
2021/03/10 04:52:43;;;;;;;1.90;1.80;;;18.70;20.70;;;;;;5117437;28;20154;-58
2021/03/10 04:55:10;;;;;;;1.60;1.50;;;18.70;20.70;;;;;;5117174;28;20623;-57
2021/03/10 04:57:38;;;;;;;1.90;1.80;;;18.70;20.70;;;;;;5117054;28;20272;-57
2021/03/10 05:00:06;;;;;;;1.73;1.63;;;18.70;20.70;;;;;;5117241;28;20176;-58
2021/03/10 05:02:32;;;;;;;1.98;1.77;;;18.70;20.70;;;;;;5117075;28;20176;-58
2021/03/10 05:04:58;;;;;;;1.27;1.17;;;18.70;20.70;;;;;;5117328;28;20246;-58
2021/03/10 05:07:23;;;;;;;1.60;1.50;;;18.60;20.60;;;;;;5117140;28;20559;-58
2021/03/10 05:09:49;;;;;;;1.60;1.50;;;18.70;20.70;;;;;;5116672;28;20165;-58
2021/03/10 05:12:15;;;;;;;1.87;1.60;;;18.70;20.70;;;;;;5117044;28;20539;-58
2021/03/10 05:14:40;;;;;;;1.50;1.40;;;18.60;20.60;;;;;;5117069;28;20546;-57
2021/03/10 05:17:09;;;;;;;1.90;1.63;;;18.60;20.60;;;;;;5116498;28;20287;-57
2021/03/10 05:19:34;;;;;;;2.13;1.92;;;18.60;20.60;;;;;;5116779;28;20163;-57
2021/03/10 05:22:02;;;;;;;1.83;1.73;;;18.60;20.60;;;;;;5116790;28;20149;-58
2021/03/10 05:24:28;;;;;;;1.60;1.50;;;18.60;20.60;;;;;;5116495;28;20154;-58
2021/03/10 05:26:54;;;;;;;2.10;1.90;;;18.60;20.60;;;;;;5116667;28;20532;-58
2021/03/10 05:29:21;;;;;;;1.70;1.60;;;18.60;20.60;;;;;;5116677;28;20604;-58
2021/03/10 05:31:49;;;;;;;1.95;1.67;;;18.60;20.60;;;;;;5116440;28;20158;-58
2021/03/10 05:34:15;;;;;;;2.15;1.95;;;18.60;20.60;;;;;;5116432;28;20702;-58
2021/03/10 05:36:41;;;;;;;1.60;1.50;;;18.60;20.60;;;;;;5116725;28;20196;-57
2021/03/10 05:39:09;;;;;;;1.50;1.40;;;18.60;20.60;;;;;;5097868;28;20220;-58
2021/03/10 05:41:34;;;;;;;1.45;1.27;;;18.60;20.60;;;;;;5116420;28;20165;-57
2021/03/10 05:44:01;;;;;;;1.70;1.53;;;18.60;20.60;;;;;;5116407;28;20176;-58
2021/03/10 05:46:26;;;;;;;1.73;1.63;;;18.60;20.60;;;;;;5116154;28;20152;-57
2021/03/10 05:48:52;;;;;;;1.63;1.53;;;18.60;20.60;;;;;;5116218;28;20165;-58
2021/03/10 05:51:19;;;;;;;2.05;1.85;;;18.60;20.60;;;;;;5115189;28;20161;-58
2021/03/10 05:53:48;;;;;;;1.75;1.65;;;18.60;20.60;;;;;;5115724;28;20180;-58
2021/03/10 05:56:14;;;;;;;1.70;1.60;;;18.60;20.60;;;;;;5116066;28;20181;-58
2021/03/10 05:58:40;;;;;;;1.73;1.63;;;18.60;20.60;;;;;;5115992;28;20271;-57
2021/03/10 06:01:06;;;;;;;1.90;1.80;;;18.60;20.60;;;;;;5116022;28;20577;-57
2021/03/10 06:03:31;;;;;;;2.10;2.00;;;18.60;20.60;;;;;;5097608;28;20764;-58
2021/03/10 06:06:04;;;;;;;1.60;1.50;;;18.60;20.60;;;;;;5097523;28;20393;-57
2021/03/10 06:08:34;;;;;;;1.10;1.00;;;18.60;20.60;;;;;;5115463;28;20157;-57
2021/03/10 06:11:03;;;;;;;1.30;1.20;;;18.60;20.60;;;;;;5115836;28;20157;-57
2021/03/10 06:13:31;;;;;;;1.60;1.50;;;18.60;20.60;;;;;;5115452;28;20249;-59
2021/03/10 06:16:04;;;;;;;1.50;1.40;;;18.60;21.20;;;;;;5115470;28;20580;-58
2021/03/10 06:18:37;;;;;;;1.90;1.80;;;18.60;20.60;;;;;;5097350;28;20267;-57
2021/03/10 06:21:10;;;;;;;1.48;1.38;;;18.60;20.60;;;;;;5115586;28;20489;-58
2021/03/10 06:23:50;;;;;;;1.50;1.40;;;18.60;20.60;;;;;;5114809;28;20260;-57
2021/03/10 06:26:18;;;;;;;2.05;1.85;;;18.60;20.60;;;;;;5115440;28;20271;-58
2021/03/10 06:28:44;;;;;;;1.33;1.23;;;18.60;20.60;;;;;;5097049;28;20218;-58
2021/03/10 06:31:16;;;;;;;1.60;1.50;;;18.60;20.60;;;;;;5115466;28;20600;-57
2021/03/10 06:33:45;;;;;;;1.52;1.42;;;18.60;20.60;;;;;;5115012;28;20161;-58
2021/03/10 06:36:10;;;;;;;1.90;1.80;;;18.60;20.60;;;;;;5115384;28;20513;-57
2021/03/10 06:38:36;;;;;;;1.93;1.80;;;18.60;20.60;;;;;;5114415;28;20694;-58
2021/03/10 06:41:02;;;;;;;2.00;1.80;;;18.60;20.60;;;;;;5115506;28;20157;-58
2021/03/10 06:43:40;;;;;;;1.50;1.40;;;18.60;20.60;;;;;;5096253;28;20396;-58
2021/03/10 06:46:14;;;;;;;1.55;1.45;;;18.60;20.60;;;;;;5115266;28;20153;-58
2021/03/10 06:49:01;;;;;;;1.45;1.35;;;18.60;20.60;;;;;;5114939;28;20149;-58
2021/03/10 06:51:28;;;;;;;1.70;1.60;;;18.60;20.60;;;;;;5115048;28;20160;-57
2021/03/10 06:53:54;;;;;;;1.60;1.50;;;18.60;20.50;;;;;;5114349;28;20150;-57
2021/03/10 06:56:23;;;;;;;1.67;1.57;;;18.60;20.60;;;;;;5114816;28;20150;-58
2021/03/10 06:59:04;;;;;;;1.60;1.50;;;18.60;20.60;;;;;;5114589;28;20482;-58
2021/03/10 07:01:38;;;;;;;2.47;1.63;;;18.60;20.60;;;;;;5095917;28;20160;-58
2021/03/10 07:04:04;;;;;;;1.77;1.67;;;18.60;20.60;;;;;;5114644;28;20600;-58
2021/03/10 07:06:30;;;;;;;1.88;1.58;;;18.60;21.10;;;;;;5114519;28;20270;-58
2021/03/10 07:08:57;;;;;;;1.95;1.80;;;18.60;20.50;;;;;;5113978;28;20214;-57
2021/03/10 07:11:23;;;;;;;1.58;1.48;;;18.60;20.60;;;;;;5114570;28;20165;-57
2021/03/10 07:13:51;;;;;;;1.50;1.40;;;18.60;20.50;;;;;;5114112;28;20179;-57
2021/03/10 07:16:17;;;;;;;27.42;24.73;;;18.60;20.60;;;;;;5103593;27;20184;-59
2021/03/10 07:18:44;;;;;;;25.60;23.10;;;16.80;14.70;;;;;;5091000;27;20217;-56
2021/03/10 07:21:13;;;;;;;25.98;23.42;;;15.40;17.80;;;;;;5112143;28;20417;-54
2021/03/10 07:23:48;;;;;;;28.42;25.15;;;13.90;20.00;;;;;;5107963;28;20192;-55
2021/03/10 07:26:17;;;;;;;30.63;22.25;;;13.20;21.10;;;;;;5116741;27;20163;-56
2021/03/10 07:28:50;;;;;;;28.60;25.30;;;12.60;22.50;;;;;;5110894;27;20180;-56
2021/03/10 07:31:20;;;;;;;29.15;25.90;;;12.00;22.60;;;;;;5114149;28;20162;-55
2021/03/10 07:33:54;;;;;;;30.92;27.45;;;11.60;23.10;;;;;;5113402;28;20157;-56
2021/03/10 07:36:35;;;;;;;27.42;24.58;;;11.00;24.00;;;;;;5096229;28;20168;-56
2021/03/10 07:39:04;;;;;;;35.78;28.60;;;10.60;25.80;;;;;;5111998;28;20181;-57
2021/03/10 07:41:38;;;;;;;32.90;26.77;;;10.40;25.40;;;;;;5112940;28;20200;-57
2021/03/10 07:44:18;;;;;;;27.98;25.02;;;10.10;26.90;;;;;;5113910;28;20148;-57
2021/03/10 07:46:48;;;;;;;27.52;20.73;;;10.30;26.90;;;;;;5113009;28;20603;-54
2021/03/10 07:49:20;;;;;;;24.92;19.45;;;10.70;28.40;;;;;;5113736;28;20657;-53
2021/03/10 07:51:47;;;;;;;21.23;18.23;;;11.30;28.80;;;;;;5110799;28;20167;-52
2021/03/10 07:54:23;;;;;;;19.17;17.23;;;11.90;28.20;;;;;;5094998;28;20160;-53
2021/03/10 07:56:49;;;;;;;23.48;19.48;;;12.50;27.20;;;;;;5111639;28;20157;-53
2021/03/10 07:59:19;;;;;;;19.73;17.40;;;13.10;26.80;;;;;;5103922;28;20208;-55
2021/03/10 08:01:46;;;;;;;18.65;16.48;;;13.50;25.90;;;;;;5096350;28;20659;-55
2021/03/10 08:04:17;;;;;;;16.33;14.68;;;14.00;26.30;;;;;;5093115;28;20165;-54
2021/03/10 08:06:44;;;;;;;19.23;13.95;;;14.40;26.00;;;;;;5111289;28;20175;-55
2021/03/10 08:09:14;;;;;;;17.10;15.43;;;14.70;25.70;;;;;;5105051;28;20658;-56
2021/03/10 08:11:46;;;;;;;14.63;13.15;;;15.00;25.90;;;;;;5108392;28;20263;-54
2021/03/10 08:14:16;;;;;;;13.52;12.13;;;15.30;25.50;;;;;;5111054;27;20190;-53
2021/03/10 08:16:47;;;;;;;13.90;12.40;;;15.50;25.00;;;;;;5122764;27;20205;-53
2021/03/10 08:19:13;;;;;;;15.48;12.15;;;15.80;25.00;;;;;;5092169;28;20568;-53
2021/03/10 08:21:57;;;;;;;10.05;8.90;;;16.00;24.70;;;;;;5113121;28;20300;-54
2021/03/10 08:24:24;;;;;;;13.02;9.55;;;16.20;24.00;;;;;;5111920;28;20237;-56
2021/03/10 08:26:56;;;;;;;11.20;10.13;;;16.30;23.50;;;;;;5114871;28;20300;-57
2021/03/10 08:29:22;;;;;;;13.43;8.98;;;16.50;23.30;;;;;;5113787;28;20161;-54
2021/03/10 08:31:54;;;;;;;11.30;8.43;;;16.60;23.10;;;;;;5094831;28;20181;-54
2021/03/10 08:34:37;;;;;;;10.82;7.55;;;16.70;22.80;;;;;;5112152;28;20180;-54
2021/03/10 08:37:08;;;;;;;10.88;9.30;;;16.90;22.70;;;;;;5115295;27;20179;-53
2021/03/10 08:39:40;;;;;;;7.50;6.80;;;17.00;22.90;;;;;;5112996;27;20204;-53
2021/03/10 08:42:06;;;;;;;11.13;7.28;;;17.10;22.80;;;;;;5115605;28;20161;-53
2021/03/10 08:44:40;;;;;;;7.63;6.90;;;17.20;22.50;;;;;;5114192;28;20544;-54
2021/03/10 08:47:31;;;;;;;7.97;6.38;;;17.30;22.30;;;;;;5109114;28;20760;-51
2021/03/10 08:49:58;;;;;;;8.65;6.07;;;17.40;22.40;;;;;;5112832;28;20234;-52
2021/03/10 08:52:28;;;;;;;5.15;4.70;;;17.40;22.40;;;;;;5115347;28;20237;-54
2021/03/10 08:55:03;;;;;;;6.15;5.18;;;17.50;22.50;;;;;;5112649;28;20169;-52
2021/03/10 08:57:32;;;;;;;6.38;5.78;;;17.60;22.40;;;;;;5111553;28;20264;-53
2021/03/10 08:59:59;;;;;;;6.53;5.90;;;17.60;22.10;;;;;;5112317;28;20180;-52
2021/03/10 09:02:35;;;;;;;6.22;5.63;;;17.70;22.10;;;;;;5115072;28;20241;-53
2021/03/10 09:05:04;;;;;;;7.78;5.22;;;17.80;22.00;;;;;;5112557;28;20658;-52
2021/03/10 09:07:30;;;;;;;6.10;4.60;;;17.80;21.90;;;;;;5111101;28;20157;-53
2021/03/10 09:10:09;;;;;;;6.13;4.78;;;17.90;21.90;;;;;;5113109;28;20184;-55
2021/03/10 09:12:40;;;;;;;5.45;4.75;;;17.90;21.90;;;;;;5114596;28;20173;-53
2021/03/10 09:15:11;;;;;;;5.35;4.10;;;18.00;21.80;;;;;;5115279;28;20274;-52
2021/03/10 09:17:37;;;;;;;5.07;4.63;;;18.10;21.80;;;;;;5110264;28;20363;-55
2021/03/10 09:20:10;;;;;;;4.80;4.40;;;18.20;21.70;;;;;;5112516;28;20464;-53
2021/03/10 09:22:45;;;;;;;4.15;3.75;;;18.20;21.60;;;;;;5113348;28;20616;-52
2021/03/10 09:25:14;;;;;;;4.65;4.25;;;18.30;21.60;;;;;;5112596;28;20185;-53
2021/03/10 09:27:42;;;;;;;4.68;4.28;;;18.30;21.70;;;;;;5111953;27;20188;-53
2021/03/10 09:30:11;;;;;;;5.78;4.60;;;18.40;21.60;;;;;;5110530;28;20188;-53
2021/03/10 09:32:45;;;;;;;3.65;3.35;;;18.40;21.50;;;;;;5113998;27;20177;-54
2021/03/10 09:35:10;;;;;;;6.65;4.18;;;18.50;21.50;;;;;;5114287;28;20493;-55
2021/03/10 09:37:46;;;;;;;4.80;4.00;;;18.60;21.50;;;;;;5101471;27;20658;-53
2021/03/10 09:40:14;;;;;;;5.18;3.85;;;18.70;21.20;;;;;;5110893;27;20317;-53
2021/03/10 09:42:39;;;;;;;5.10;4.15;;;18.70;21.00;;;;;;5114197;28;20169;-52
2021/03/10 09:45:06;;;;;;;3.83;3.50;;;18.80;21.00;;;;;;5113057;28;20647;-53
2021/03/10 09:47:31;;;;;;;4.75;3.63;;;18.80;20.80;;;;;;5089794;28;20177;-52
2021/03/10 09:49:59;;;;;;;5.37;4.20;;;18.90;20.80;;;;;;5107866;28;20188;-52
2021/03/10 09:52:38;;;;;;;3.65;3.35;;;19.00;20.60;;;;;;5108481;28;20200;-53
2021/03/10 09:55:08;;;;;;;5.15;4.07;;;19.10;20.60;;;;;;5113605;28;20682;-52
2021/03/10 09:57:34;;;;;;;4.72;4.10;;;19.10;20.40;;;;;;5110873;27;20165;-53
2021/03/10 10:00:00;;;;;;;4.30;3.90;;;19.10;20.40;;;;;;5112311;28;20161;-53
2021/03/10 10:02:28;;;;;;;4.10;3.80;;;19.10;20.50;;;;;;5111400;28;20183;-55
2021/03/10 10:05:00;;;;;;;5.22;3.10;;;19.10;20.50;;;;;;5090226;28;20181;-54
2021/03/10 10:07:27;;;;;;;4.35;3.92;;;19.10;20.50;;;;;;5105562;28;20192;-52
2021/03/10 10:09:54;;;;;;;5.82;3.72;;;19.20;20.50;;;;;;5108876;28;20177;-54
2021/03/10 10:12:20;;;;;;;3.67;3.38;;;19.20;20.50;;;;;;5112166;28;20241;-55
2021/03/10 10:14:46;;;;;;;5.50;3.45;;;19.20;20.60;;;;;;5107303;28;20670;-53
2021/03/10 10:17:12;;;;;;;4.40;4.00;;;19.20;20.70;;;;;;5108666;28;20233;-54
2021/03/10 10:19:38;;;;;;;2.95;2.75;;;19.20;21.20;;;;;;5108455;28;20507;-53
2021/03/10 10:22:04;;;;;;;3.43;3.13;;;19.20;20.70;;;;;;5109153;28;20223;-52
2021/03/10 10:24:29;;;;;;;4.73;3.47;;;19.20;20.70;;;;;;5106219;28;20184;-53
2021/03/10 10:26:57;;;;;;;3.53;3.23;;;19.20;20.70;;;;;;5108638;28;20173;-53
2021/03/10 10:29:23;;;;;;;4.22;2.90;;;19.20;20.80;;;;;;5110890;28;20208;-53
2021/03/10 10:31:49;;;;;;;4.90;3.67;;;19.20;20.80;;;;;;5112305;28;20204;-52
2021/03/10 10:34:14;;;;;;;4.93;3.67;;;19.20;21.00;;;;;;5109335;28;20937;-53
2021/03/10 10:36:40;;;;;;;4.50;3.00;;;19.30;21.30;;;;;;5105987;28;20535;-52
2021/03/10 10:39:14;;;;;;;9.27;3.93;;;19.30;21.30;;;;;;5108069;28;20457;-54
2021/03/10 10:41:39;;;;;;;3.45;2.67;;;19.30;21.40;;;;;;5110634;28;20341;-53
2021/03/10 10:44:05;;;;;;;4.70;3.97;;;19.30;21.30;;;;;;5109638;28;20690;-52
2021/03/10 10:46:31;;;;;;;7.60;3.87;;;19.30;21.30;;;;;;5108464;28;20177;-53
2021/03/10 10:48:59;;;;;;;4.63;2.87;;;19.60;21.50;;;;;;5110958;28;20189;-53
2021/03/10 10:51:28;;;;;;;3.63;3.33;;;19.40;21.40;;;;;;5096436;28;20197;-53
2021/03/10 10:53:54;;;;;;;3.40;3.10;;;19.40;21.30;;;;;;5106725;28;20175;-53
2021/03/10 10:56:22;;;;;;;4.33;4.00;;;19.40;21.30;;;;;;5089394;28;20185;-53
2021/03/10 10:58:51;;;;;;;3.40;3.00;;;19.40;21.30;;;;;;5091240;28;20283;-53
2021/03/10 11:01:16;;;;;;;3.38;2.90;;;19.40;21.30;;;;;;5112669;28;20211;-53
2021/03/10 11:03:42;;;;;;;4.10;3.77;;;19.50;21.30;;;;;;5108373;28;20552;-51
2021/03/10 11:06:08;;;;;;;3.47;3.17;;;19.50;21.30;;;;;;5107025;27;20585;-52
2021/03/10 11:08:33;;;;;;;3.90;2.97;;;19.50;21.20;;;;;;5086523;28;20192;-54
2021/03/10 11:10:59;;;;;;;4.90;3.53;;;19.50;21.20;;;;;;5108627;28;20398;-54
2021/03/10 11:13:25;;;;;;;3.67;3.37;;;19.50;21.20;;;;;;5108134;28;20242;-54
2021/03/10 11:15:50;;;;;;;3.90;3.20;;;19.50;21.20;;;;;;5110352;28;20193;-54
2021/03/10 11:18:16;;;;;;;5.00;3.00;;;19.60;21.30;;;;;;5108909;28;20293;-54
2021/03/10 11:20:42;;;;;;;3.57;3.10;;;19.60;21.30;;;;;;5110187;28;20643;-53
2021/03/10 11:23:09;;;;;;;8.43;3.37;;;19.60;21.20;;;;;;5110338;28;20237;-54
2021/03/10 11:25:35;;;;;;;3.97;3.58;;;19.60;21.20;;;;;;5112681;28;20180;-55
2021/03/10 11:28:01;;;;;;;4.10;3.70;;;19.60;21.30;;;;;;5109154;28;20615;-54
2021/03/10 11:30:27;;;;;;;3.40;3.03;;;19.60;21.30;;;;;;5109794;28;20231;-54
2021/03/10 11:32:52;;;;;;;2.80;2.60;;;19.60;21.30;;;;;;5109251;28;20176;-53
2021/03/10 11:35:22;;;;;;;3.50;2.87;;;19.60;21.20;;;;;;5113027;28;20562;-53
2021/03/10 11:37:47;;;;;;;6.75;3.58;;;19.60;21.30;;;;;;5114449;27;20623;-53
2021/03/10 11:40:16;;;;;;;3.77;3.10;;;19.60;21.30;;;;;;5109909;28;20189;-52
2021/03/10 11:42:42;;;;;;;3.08;2.78;;;19.70;21.30;;;;;;5108551;28;20246;-51
2021/03/10 11:45:08;;;;;;;3.13;2.83;;;19.70;21.80;;;;;;5110303;28;20640;-52
2021/03/10 11:47:40;;;;;;;3.78;3.13;;;19.70;21.50;;;;;;5110183;28;20274;-51
2021/03/10 11:50:06;;;;;;;4.35;2.70;;;19.70;21.30;;;;;;5108683;28;20221;-52
2021/03/10 11:52:32;;;;;;;9.80;2.92;;;19.70;21.50;;;;;;5109238;28;20181;-54
2021/03/10 11:54:58;;;;;;;6.13;3.17;;;19.70;21.70;;;;;;5111683;28;20175;-54
2021/03/10 11:57:24;;;;;;;3.97;3.43;;;19.70;21.70;;;;;;5103867;28;20417;-53
2021/03/10 11:59:49;;;;;;;3.37;3.07;;;19.80;21.80;;;;;;5112000;28;20189;-53
2021/03/10 12:02:15;;;;;;;5.03;3.40;;;19.80;21.80;;;;;;5110773;28;20176;-52
2021/03/10 12:04:41;;;;;;;4.13;3.07;;;19.80;21.70;;;;;;5109549;28;20260;-54
2021/03/10 12:07:06;;;;;;;3.67;3.07;;;19.80;21.60;;;;;;5111714;28;20177;-53
2021/03/10 12:09:32;;;;;;;3.93;2.70;;;19.80;21.60;;;;;;5121993;28;20551;-53
2021/03/10 12:11:58;;;;;;;3.67;3.37;;;19.80;21.50;;;;;;5121461;28;20168;-52
2021/03/10 12:14:24;;;;;;;2.57;2.33;;;19.80;21.50;;;;;;5107926;28;20849;-53
2021/03/10 12:16:51;;;;;;;4.55;2.72;;;19.80;21.50;;;;;;5105671;28;20813;-53
2021/03/10 12:19:19;;;;;;;2.42;2.22;;;19.80;21.30;;;;;;5111335;28;20262;-53
2021/03/10 12:21:45;;;;;;;2.85;2.65;;;19.80;21.10;;;;;;5111408;28;20165;-54
2021/03/10 12:24:11;;;;;;;4.57;3.28;;;19.80;21.10;;;;;;5092916;28;20177;-52
2021/03/10 12:26:37;;;;;;;7.20;3.10;;;19.80;21.20;;;;;;5110468;28;20188;-52
2021/03/10 12:29:03;;;;;;;3.20;2.90;;;19.80;21.60;;;;;;5103782;28;20185;-53
2021/03/10 12:31:29;;;;;;;3.53;2.70;;;19.80;21.80;;;;;;5108820;28;20696;-53
2021/03/10 12:33:55;;;;;;;3.90;3.10;;;19.80;21.90;;;;;;5102632;28;20516;-54
2021/03/10 12:36:20;;;;;;;7.00;2.77;;;19.80;22.10;;;;;;5111750;28;20177;-54
2021/03/10 12:38:46;;;;;;;8.53;3.57;;;19.80;22.20;;;;;;5108051;28;20193;-54
2021/03/10 12:41:12;;;;;;;4.23;2.97;;;19.80;22.50;;;;;;5112597;28;20554;-53
2021/03/10 12:43:41;;;;;;;2.70;2.50;;;19.90;22.30;;;;;;5111978;28;20161;-53
2021/03/10 12:46:06;;;;;;;3.15;2.80;;;19.90;22.20;;;;;;5111769;28;20215;-53
2021/03/10 12:48:32;;;;;;;4.20;2.77;;;19.90;22.20;;;;;;5109469;28;20173;-51